Time,TemperatureF,DewpointF,PressureIn,WindDirection,WindDirectionDegrees,WindSpeedMPH,WindSpeedGustMPH,Humidity,HourlyPrecipIn,Conditions,Clouds,dailyrainin,SolarRadiationWatts/m^2,SoftwareType,DateUTC
2013-05-13 00:03:00,34.0,30.0,-100.00,SSE,155,2.0,5.0,86,0.00,,,0.00,0.000000,,2013-05-13 04:03:00,
2013-05-13 00:12:00,34.0,30.0,-100.00,SSE,155,2.0,5.0,86,0.00,,,0.00,0.000000,,2013-05-13 04:12:00,
2013-05-13 00:23:00,34.0,30.0,-100.00,SSE,155,2.0,5.0,86,0.00,,,0.00,0.000000,,2013-05-13 04:23:00,
2013-05-13 00:53:00,34.0,29.0,-100.00,ESE,123,3.0,4.0,82,0.00,,,0.00,0.000000,,2013-05-13 04:53:00,
2013-05-13 01:02:00,34.0,29.0,-100.00,ESE,123,3.0,4.0,82,0.00,,,0.00,0.000000,,2013-05-13 05:02:00,
2013-05-13 01:12:00,34.0,29.0,-100.00,ESE,123,3.0,4.0,82,0.00,,,0.00,0.000000,,2013-05-13 05:12:00,
2013-05-13 01:22:00,34.0,29.0,-100.00,ESE,123,3.0,4.0,82,0.00,,,0.00,0.000000,,2013-05-13 05:22:00,
2013-05-13 01:52:00,35.0,29.0,-100.00,SSE,148,3.0,7.0,78,0.00,,,0.00,0.000000,,2013-05-13 05:52:00,
2013-05-13 02:01:00,35.0,29.0,-100.00,SSE,148,3.0,7.0,78,0.00,,,0.00,0.000000,,2013-05-13 06:01:00,
2013-05-13 02:12:00,35.0,29.0,-100.00,SSE,148,3.0,7.0,78,0.00,,,0.00,0.000000,,2013-05-13 06:12:00,
2013-05-13 02:21:00,35.0,29.0,-100.00,SSE,148,3.0,7.0,78,0.00,,,0.00,0.000000,,2013-05-13 06:21:00,
2013-05-13 02:52:00,37.0,26.0,-100.00,South,189,3.0,11.0,63,0.00,,,0.00,0.000000,,2013-05-13 06:52:00,
2013-05-13 03:01:00,37.0,26.0,-100.00,South,189,3.0,11.0,63,0.00,,,0.00,0.000000,,2013-05-13 07:01:00,
2013-05-13 03:11:00,37.0,26.0,-100.00,South,189,3.0,11.0,63,0.00,,,0.00,0.000000,,2013-05-13 07:11:00,
2013-05-13 03:22:00,37.0,26.0,-100.00,South,189,3.0,11.0,63,0.00,,,0.00,0.000000,,2013-05-13 07:22:00,
2013-05-13 03:52:00,39.0,27.0,-100.00,SW,236,4.0,12.0,62,0.00,,,0.00,0.000000,,2013-05-13 07:52:00,
2013-05-13 04:02:00,39.0,27.0,-100.00,SW,236,4.0,12.0,62,0.00,,,0.00,0.000000,,2013-05-13 08:02:00,
2013-05-13 04:11:00,39.0,27.0,-100.00,SW,236,4.0,12.0,62,0.00,,,0.00,0.000000,,2013-05-13 08:11:00,
2013-05-13 04:21:00,39.0,27.0,-100.00,SW,236,4.0,12.0,62,0.00,,,0.00,0.000000,,2013-05-13 08:21:00,
2013-05-13 04:52:00,37.0,29.0,-100.00,WNW,286,4.0,12.0,72,0.00,,,0.00,0.000000,,2013-05-13 08:52:00,
2013-05-13 05:01:00,37.0,29.0,-100.00,WNW,286,4.0,12.0,72,0.00,,,0.00,0.000000,,2013-05-13 09:01:00,
2013-05-13 05:11:00,37.0,29.0,-100.00,WNW,286,4.0,12.0,72,0.00,,,0.00,0.000000,,2013-05-13 09:11:00,
2013-05-13 05:21:00,37.0,29.0,-100.00,WNW,286,4.0,12.0,72,0.00,,,0.00,0.000000,,2013-05-13 09:21:00,
2013-05-13 05:52:00,36.0,28.0,-100.00,West,260,3.0,11.0,71,0.00,,,0.00,0.000000,,2013-05-13 09:52:00,
2013-05-13 06:03:00,36.0,28.0,-100.00,West,260,3.0,11.0,71,0.00,,,0.00,0.000000,,2013-05-13 10:03:00,
2013-05-13 06:12:00,36.0,28.0,-100.00,West,260,3.0,11.0,71,0.00,,,0.00,0.000000,,2013-05-13 10:12:00,
2013-05-13 06:22:00,36.0,28.0,-100.00,West,260,3.0,11.0,71,0.00,,,0.00,0.000000,,2013-05-13 10:22:00,
2013-05-13 06:53:00,37.0,23.0,-100.00,WSW,254,4.0,13.0,56,0.00,,,0.00,15.000000,,2013-05-13 10:53:00,
2013-05-13 07:03:00,37.0,23.0,-100.00,WSW,254,4.0,13.0,56,0.00,,,0.00,15.000000,,2013-05-13 11:03:00,
2013-05-13 07:12:00,37.0,23.0,-100.00,WSW,254,4.0,13.0,56,0.00,,,0.00,15.000000,,2013-05-13 11:12:00,
2013-05-13 07:22:00,37.0,23.0,-100.00,WSW,254,4.0,13.0,56,0.00,,,0.00,15.000000,,2013-05-13 11:22:00,
2013-05-13 07:52:00,38.0,23.0,-100.00,SW,226,4.0,13.0,54,0.00,,,0.00,58.000000,,2013-05-13 11:52:00,
2013-05-13 08:02:00,38.0,23.0,-100.00,SW,226,4.0,13.0,54,0.00,,,0.00,58.000000,,2013-05-13 12:02:00,
2013-05-13 08:12:00,38.0,23.0,-100.00,SW,226,4.0,13.0,54,0.00,,,0.00,58.000000,,2013-05-13 12:12:00,
2013-05-13 08:21:00,38.0,23.0,-100.00,SW,226,4.0,13.0,54,0.00,,,0.00,58.000000,,2013-05-13 12:21:00,
2013-05-13 08:52:00,39.0,24.0,-100.00,WSW,253,7.0,16.0,54,0.00,,,0.00,102.000000,,2013-05-13 12:52:00,
2013-05-13 09:01:00,39.0,24.0,-100.00,WSW,253,7.0,16.0,54,0.00,,,0.00,102.000000,,2013-05-13 13:01:00,
2013-05-13 09:11:00,39.0,24.0,-100.00,WSW,253,7.0,16.0,54,0.00,,,0.00,102.000000,,2013-05-13 13:11:00,
2013-05-13 09:21:00,39.0,24.0,-100.00,WSW,253,7.0,16.0,54,0.00,,,0.00,102.000000,,2013-05-13 13:21:00,
2013-05-13 09:52:00,41.0,24.0,-100.00,West,267,4.0,15.0,51,0.00,,,0.00,175.000000,,2013-05-13 13:52:00,
2013-05-13 10:02:00,41.0,24.0,-100.00,West,267,4.0,15.0,51,0.00,,,0.00,175.000000,,2013-05-13 14:02:00,
2013-05-13 10:11:00,41.0,24.0,-100.00,West,267,4.0,15.0,51,0.00,,,0.00,175.000000,,2013-05-13 14:11:00,
2013-05-13 10:22:00,41.0,24.0,-100.00,West,267,4.0,15.0,51,0.00,,,0.00,175.000000,,2013-05-13 14:22:00,
2013-05-13 10:52:00,41.0,23.0,-100.00,West,268,6.0,14.0,49,0.00,,,0.00,179.000000,,2013-05-13 14:52:00,
2013-05-13 11:01:00,41.0,23.0,-100.00,West,268,6.0,14.0,49,0.00,,,0.00,179.000000,,2013-05-13 15:01:00,
2013-05-13 11:11:00,41.0,23.0,-100.00,West,268,6.0,14.0,49,0.00,,,0.00,179.000000,,2013-05-13 15:11:00,
2013-05-13 11:21:00,41.0,23.0,-100.00,West,268,6.0,14.0,49,0.00,,,0.00,179.000000,,2013-05-13 15:21:00,
2013-05-13 11:53:00,44.0,24.0,-100.00,WSW,244,6.0,12.0,45,0.00,,,0.00,262.000000,,2013-05-13 15:53:00,
2013-05-13 12:03:00,44.0,24.0,-100.00,WSW,244,6.0,12.0,45,0.00,,,0.00,262.000000,,2013-05-13 16:03:00,
2013-05-13 12:12:00,44.0,24.0,-100.00,WSW,244,6.0,12.0,45,0.00,,,0.00,262.000000,,2013-05-13 16:12:00,
2013-05-13 12:21:00,44.0,24.0,-100.00,WSW,244,6.0,12.0,45,0.00,,,0.00,262.000000,,2013-05-13 16:21:00,
2013-05-13 12:53:00,44.0,24.0,-100.00,West,273,5.0,18.0,45,0.00,,,0.00,239.000000,,2013-05-13 16:53:00,
2013-05-13 13:02:00,44.0,24.0,-100.00,West,273,5.0,18.0,45,0.00,,,0.00,239.000000,,2013-05-13 17:02:00,
2013-05-13 13:12:00,44.0,24.0,-100.00,West,273,5.0,18.0,45,0.00,,,0.00,239.000000,,2013-05-13 17:12:00,
2013-05-13 13:21:00,44.0,24.0,-100.00,West,273,5.0,18.0,45,0.00,,,0.00,239.000000,,2013-05-13 17:21:00,
2013-05-13 13:54:00,45.0,25.0,-100.00,WNW,295,5.0,12.0,46,0.00,,,0.00,261.000000,,2013-05-13 17:54:00,
2013-05-13 14:04:00,45.0,25.0,-100.00,WNW,295,5.0,12.0,46,0.00,,,0.00,261.000000,,2013-05-13 18:04:00,
2013-05-13 14:13:00,45.0,25.0,-100.00,WNW,295,5.0,12.0,46,0.00,,,0.00,261.000000,,2013-05-13 18:13:00,
2013-05-13 14:23:00,45.0,25.0,-100.00,WNW,295,5.0,12.0,46,0.00,,,0.00,261.000000,,2013-05-13 18:23:00,
2013-05-13 14:52:00,48.0,25.0,-100.00,WNW,284,6.0,16.0,40,0.00,,,0.00,411.000000,,2013-05-13 18:52:00,
2013-05-13 15:01:00,48.0,25.0,-100.00,WNW,284,6.0,16.0,40,0.00,,,0.00,411.000000,,2013-05-13 19:01:00,
2013-05-13 15:12:00,48.0,25.0,-100.00,WNW,284,6.0,16.0,40,0.00,,,0.00,411.000000,,2013-05-13 19:12:00,
2013-05-13 15:22:00,48.0,25.0,-100.00,WNW,284,6.0,16.0,40,0.00,,,0.00,411.000000,,2013-05-13 19:22:00,
2013-05-13 15:53:00,46.0,25.0,-100.00,West,263,6.0,15.0,44,0.00,,,0.00,330.000000,,2013-05-13 19:53:00,
2013-05-13 16:02:00,46.0,25.0,-100.00,West,263,6.0,15.0,44,0.00,,,0.00,330.000000,,2013-05-13 20:02:00,
2013-05-13 16:11:00,46.0,25.0,-100.00,West,263,6.0,15.0,44,0.00,,,0.00,330.000000,,2013-05-13 20:11:00,
2013-05-13 16:23:00,46.0,25.0,-100.00,West,263,6.0,15.0,44,0.00,,,0.00,330.000000,,2013-05-13 20:23:00,
2013-05-13 16:53:00,45.0,32.0,-100.00,WSW,248,6.0,14.0,60,0.00,,,0.00,302.000000,,2013-05-13 20:53:00,
2013-05-13 17:03:00,45.0,32.0,-100.00,WSW,248,6.0,14.0,60,0.00,,,0.00,302.000000,,2013-05-13 21:03:00,
2013-05-13 17:14:00,45.0,32.0,-100.00,WSW,248,6.0,14.0,60,0.00,,,0.00,302.000000,,2013-05-13 21:14:00,
2013-05-13 17:23:00,45.0,32.0,-100.00,WSW,248,6.0,14.0,60,0.00,,,0.00,302.000000,,2013-05-13 21:23:00,
2013-05-13 17:53:00,47.0,27.0,-100.00,WNW,298,7.0,14.0,46,0.00,,,0.00,352.000000,,2013-05-13 21:53:00,
2013-05-13 18:03:00,47.0,27.0,-100.00,WNW,298,7.0,14.0,46,0.00,,,0.00,352.000000,,2013-05-13 22:03:00,
2013-05-13 18:12:00,47.0,27.0,-100.00,WNW,298,7.0,14.0,46,0.00,,,0.00,352.000000,,2013-05-13 22:12:00,
2013-05-13 18:23:00,47.0,27.0,-100.00,WNW,298,7.0,14.0,46,0.00,,,0.00,352.000000,,2013-05-13 22:23:00,
2013-05-13 18:52:00,47.0,25.0,-100.00,West,267,6.0,15.0,42,0.00,,,0.00,266.000000,,2013-05-13 22:52:00,
2013-05-13 19:02:00,47.0,25.0,-100.00,West,267,6.0,15.0,42,0.00,,,0.00,266.000000,,2013-05-13 23:02:00,
2013-05-13 19:13:00,47.0,25.0,-100.00,West,267,6.0,15.0,42,0.00,,,0.00,266.000000,,2013-05-13 23:13:00,
2013-05-13 19:23:00,47.0,25.0,-100.00,West,267,6.0,15.0,42,0.00,,,0.00,266.000000,,2013-05-13 23:23:00,
2013-05-13 19:54:00,46.0,25.0,-100.00,West,270,5.0,11.0,44,0.00,,,0.00,133.000000,,2013-05-13 23:54:00,
2013-05-13 20:02:00,46.0,25.0,-100.00,West,270,5.0,11.0,44,0.00,,,0.00,133.000000,,2013-05-14 00:02:00,
2013-05-13 20:13:00,46.0,25.0,-100.00,West,270,5.0,11.0,44,0.00,,,0.00,133.000000,,2013-05-14 00:13:00,
2013-05-13 20:22:00,46.0,25.0,-100.00,West,270,5.0,11.0,44,0.00,,,0.00,133.000000,,2013-05-14 00:22:00,
2013-05-13 20:52:00,40.0,27.0,-100.00,WNW,287,1.0,9.0,60,0.00,,,0.00,16.000000,,2013-05-14 00:52:00,
2013-05-13 21:02:00,40.0,27.0,-100.00,WNW,287,1.0,9.0,60,0.00,,,0.00,16.000000,,2013-05-14 01:02:00,
2013-05-13 21:11:00,40.0,27.0,-100.00,WNW,287,1.0,9.0,60,0.00,,,0.00,16.000000,,2013-05-14 01:11:00,
2013-05-13 21:21:00,40.0,27.0,-100.00,WNW,287,1.0,9.0,60,0.00,,,0.00,16.000000,,2013-05-14 01:21:00,
2013-05-13 21:53:00,35.0,30.0,-100.00,SE,124,3.0,4.0,81,0.00,,,0.00,0.000000,,2013-05-14 01:53:00,
2013-05-13 22:02:00,35.0,30.0,-100.00,SE,124,3.0,4.0,81,0.00,,,0.00,0.000000,,2013-05-14 02:02:00,
2013-05-13 22:12:00,35.0,30.0,-100.00,SE,124,3.0,4.0,81,0.00,,,0.00,0.000000,,2013-05-14 02:12:00,
2013-05-13 22:22:00,35.0,30.0,-100.00,SE,124,3.0,4.0,81,0.00,,,0.00,0.000000,,2013-05-14 02:22:00,
2013-05-13 22:52:00,33.0,30.0,-100.00,SE,131,2.0,3.0,89,0.00,,,0.00,0.000000,,2013-05-14 02:52:00,
2013-05-13 23:01:00,33.0,30.0,-100.00,SE,131,2.0,3.0,89,0.00,,,0.00,0.000000,,2013-05-14 03:01:00,
2013-05-13 23:11:00,33.0,30.0,-100.00,SE,131,2.0,3.0,89,0.00,,,0.00,0.000000,,2013-05-14 03:11:00,
2013-05-13 23:21:00,33.0,30.0,-100.00,SE,131,2.0,3.0,89,0.00,,,0.00,0.000000,,2013-05-14 03:21:00,
2013-05-13 23:53:00,36.0,32.0,-100.00,SSE,147,1.0,3.0,84,0.00,,,0.00,0.000000,,2013-05-14 03:53:00,